createdAt,value
2022-09-14T03:03:00.162Z,18.00
2022-09-14T03:05:27.981Z,18.00
2022-09-14T03:07:55.919Z,18.00
2022-09-14T03:10:23.726Z,18.00
2022-09-14T03:12:51.654Z,18.00
2022-09-14T03:15:19.506Z,18.00
2022-09-14T03:17:48.018Z,18.00
2022-09-14T03:20:19.372Z,18.00
2022-09-14T03:22:47.507Z,18.00
2022-09-14T03:25:15.684Z,18.00
2022-09-14T03:27:43.708Z,18.00
2022-09-14T03:30:12.859Z,18.00
2022-09-14T03:32:40.679Z,18.10
2022-09-14T03:35:09.606Z,18.10
2022-09-14T03:37:40.466Z,18.00
2022-09-14T03:40:10.513Z,18.10
2022-09-14T03:42:42.337Z,18.10
2022-09-14T03:45:11.260Z,18.00
2022-09-14T03:47:39.151Z,18.10
2022-09-14T03:50:08.413Z,18.10
2022-09-14T03:52:37.088Z,18.00
2022-09-14T03:55:08.310Z,18.10
2022-09-14T03:57:37.106Z,18.10
2022-09-14T04:00:08.192Z,18.10
2022-09-14T04:02:39.387Z,18.00
2022-09-14T04:05:07.607Z,18.00
2022-09-14T04:07:35.446Z,18.10
2022-09-14T04:10:04.143Z,18.00
2022-09-14T04:12:36.871Z,18.00
2022-09-14T04:15:05.338Z,18.00
2022-09-14T04:17:33.411Z,18.00
2022-09-14T04:20:01.235Z,18.00
2022-09-14T04:22:29.077Z,18.00
2022-09-14T04:24:56.882Z,18.00
2022-09-14T04:27:24.780Z,18.00
2022-09-14T04:29:54.048Z,18.00
2022-09-14T04:32:21.882Z,18.00
2022-09-14T04:34:49.979Z,18.00
2022-09-14T04:37:17.925Z,18.00
2022-09-14T04:39:45.804Z,18.00
2022-09-14T04:42:13.628Z,18.00
2022-09-14T04:44:41.430Z,18.10
2022-09-14T04:47:10.616Z,18.00
2022-09-14T04:49:38.421Z,18.00
2022-09-14T04:52:06.277Z,18.10
2022-09-14T04:54:34.088Z,18.10
2022-09-14T04:57:02.008Z,18.10
2022-09-14T04:59:29.839Z,18.10
2022-09-14T05:01:57.690Z,18.10
2022-09-14T05:04:27.030Z,18.10
2022-09-14T05:06:56.107Z,18.10
2022-09-14T05:09:24.102Z,18.10
2022-09-14T05:11:52.778Z,18.10
2022-09-14T05:14:20.753Z,18.10
2022-09-14T05:16:48.564Z,18.10
2022-09-14T05:19:18.505Z,18.10
2022-09-14T05:21:48.017Z,18.10
2022-09-14T05:24:18.956Z,18.10
2022-09-14T05:26:47.500Z,18.10
2022-09-14T05:29:17.050Z,18.10
2022-09-14T05:31:45.403Z,18.00
2022-09-14T05:34:13.803Z,18.00
2022-09-14T05:36:42.283Z,18.00
2022-09-14T05:39:12.118Z,18.10
2022-09-14T05:41:40.098Z,18.10
2022-09-14T05:44:08.182Z,18.10
2022-09-14T05:46:36.158Z,18.10
2022-09-14T05:49:04.190Z,18.10
2022-09-14T05:51:32.042Z,18.20
2022-09-14T05:54:00.652Z,18.20
2022-09-14T05:56:31.594Z,18.20
2022-09-14T05:59:00.213Z,18.20
2022-09-14T06:01:30.042Z,18.20
2022-09-14T06:04:00.227Z,18.30
2022-09-14T06:06:28.220Z,18.30
2022-09-14T06:08:56.323Z,18.30
2022-09-14T06:11:25.871Z,18.30
2022-09-14T06:13:55.735Z,18.30
2022-09-14T06:16:24.971Z,18.30
2022-09-14T06:18:52.844Z,18.40
2022-09-14T06:21:22.223Z,18.30
2022-09-14T06:23:51.026Z,18.40
2022-09-14T06:26:19.772Z,18.40
2022-09-14T06:28:47.693Z,18.40
2022-09-14T06:31:17.767Z,18.40
2022-09-14T06:33:45.835Z,18.40
2022-09-14T06:36:15.840Z,18.30
2022-09-14T06:38:44.350Z,18.30
2022-09-14T06:41:14.238Z,18.40
2022-09-14T06:43:43.339Z,18.40
2022-09-14T06:46:14.595Z,18.40
2022-09-14T06:48:45.434Z,18.30
2022-09-14T06:51:15.841Z,18.30
2022-09-14T06:53:44.236Z,18.40
2022-09-14T06:56:12.235Z,18.40
2022-09-14T06:58:40.562Z,18.40
2022-09-14T07:01:11.894Z,18.50
2022-09-14T07:03:40.746Z,18.60
2022-09-14T07:06:12.833Z,18.70
2022-09-14T07:08:41.366Z,18.70
2022-09-14T07:11:11.300Z,18.70
2022-09-14T07:13:39.609Z,18.80
2022-09-14T07:16:08.935Z,18.70
2022-09-14T07:18:37.352Z,18.80
2022-09-14T07:21:06.692Z,18.90
2022-09-14T07:23:38.521Z,18.90
2022-09-14T07:26:07.976Z,18.90
2022-09-14T07:28:37.012Z,19.00
2022-09-14T07:31:05.747Z,19.00
2022-09-14T07:33:33.630Z,19.00
2022-09-14T07:36:08.261Z,19.10
2022-09-14T07:38:53.549Z,19.20
2022-09-14T07:41:22.281Z,19.30
2022-09-14T07:43:51.007Z,19.40
2022-09-14T07:46:19.132Z,19.40
2022-09-14T07:48:47.192Z,19.30
2022-09-14T07:51:15.048Z,19.30
2022-09-14T07:53:45.482Z,19.20
2022-09-14T07:56:14.799Z,19.20
2022-09-14T07:58:42.625Z,19.10
2022-09-14T08:01:12.848Z,19.10
2022-09-14T08:03:42.033Z,19.00
2022-09-14T08:06:13.018Z,18.90
2022-09-14T08:08:43.042Z,19.00
2022-09-14T08:11:15.665Z,18.90
2022-09-14T08:13:45.391Z,18.90
2022-09-14T08:16:14.041Z,18.90
2022-09-14T08:18:42.428Z,18.80
2022-09-14T08:21:12.098Z,18.80
2022-09-14T08:23:41.611Z,18.80
2022-09-14T08:26:11.107Z,18.80
2022-09-14T08:28:40.912Z,18.90
2022-09-14T08:31:10.455Z,18.90
2022-09-14T08:33:40.547Z,18.90
2022-09-14T08:36:10.160Z,18.90
2022-09-14T08:38:38.523Z,19.00
2022-09-14T08:41:17.514Z,19.00
2022-09-14T08:43:47.067Z,19.00
2022-09-14T08:46:25.081Z,19.00
2022-09-14T08:48:54.608Z,19.00
2022-09-14T08:51:22.971Z,19.10
2022-09-14T08:53:53.168Z,19.20
2022-09-14T08:56:37.430Z,19.20
2022-09-14T08:59:23.024Z,19.10
2022-09-14T09:02:01.811Z,19.20
2022-09-14T09:04:37.633Z,19.30
2022-09-14T09:07:12.967Z,19.30
2022-09-14T09:09:44.999Z,19.40
2022-09-14T09:12:20.135Z,19.40
2022-09-14T09:14:53.077Z,19.40
2022-09-14T09:17:26.028Z,19.40
2022-09-14T09:20:01.898Z,19.50
2022-09-14T09:22:36.861Z,19.60
2022-09-14T09:25:05.975Z,19.50
2022-09-14T09:27:35.081Z,19.50
2022-09-14T09:30:02.962Z,19.50
2022-09-14T09:32:31.372Z,19.60
2022-09-14T09:35:34.842Z,19.60
2022-09-14T09:38:15.673Z,19.70
2022-09-14T09:40:47.195Z,19.80
2022-09-14T09:43:33.580Z,19.90
2022-09-14T09:46:08.764Z,19.90
2022-09-14T09:48:42.347Z,19.90
2022-09-14T09:51:13.589Z,19.90
2022-09-14T09:53:49.195Z,19.80
2022-09-14T09:56:23.767Z,19.70
2022-09-14T09:58:53.223Z,19.50
2022-09-14T10:01:24.086Z,19.60
2022-09-14T10:04:03.534Z,19.70
2022-09-14T10:06:31.845Z,19.80
2022-09-14T10:08:59.915Z,19.90
2022-09-14T10:11:34.338Z,19.90
2022-09-14T10:14:04.931Z,20.00
2022-09-14T10:16:38.086Z,20.10
2022-09-14T10:19:14.948Z,20.20
2022-09-14T10:22:18.226Z,20.20
2022-09-14T10:24:56.709Z,20.30
2022-09-14T10:27:39.490Z,20.30
2022-09-14T10:30:14.844Z,20.30
2022-09-14T10:32:46.155Z,20.30
2022-09-14T10:35:15.606Z,20.20
2022-09-14T10:37:53.722Z,20.20
2022-09-14T10:40:30.171Z,20.40
2022-09-14T10:43:10.051Z,20.40
2022-09-14T10:45:42.393Z,20.30
2022-09-14T10:48:36.570Z,20.40
2022-09-14T10:51:16.903Z,20.40
2022-09-14T10:53:54.842Z,20.40
2022-09-14T10:56:28.286Z,20.40
2022-09-14T10:59:21.365Z,20.30
2022-09-14T11:02:13.957Z,20.30
2022-09-14T11:04:58.806Z,20.30
2022-09-14T11:07:36.901Z,20.30
2022-09-14T11:10:17.498Z,20.30
2022-09-14T11:12:54.572Z,20.30
2022-09-14T11:15:27.751Z,20.30
2022-09-14T11:18:14.023Z,20.40
2022-09-14T11:20:56.605Z,20.40
2022-09-14T11:23:38.049Z,20.50
2022-09-14T11:26:15.551Z,20.50
2022-09-14T11:28:46.007Z,20.50
2022-09-14T11:31:19.892Z,20.50
2022-09-14T11:33:55.089Z,20.60
2022-09-14T11:36:25.904Z,20.60
2022-09-14T11:38:57.925Z,20.60
2022-09-14T11:41:31.983Z,20.70
2022-09-14T11:44:05.193Z,20.90
2022-09-14T11:46:35.800Z,21.00
2022-09-14T11:49:16.185Z,21.10
2022-09-14T11:51:49.863Z,21.10
2022-09-14T11:54:19.808Z,21.20
2022-09-14T11:56:49.890Z,21.40
2022-09-14T11:59:50.573Z,21.50
2022-09-14T12:03:12.805Z,21.50
2022-09-14T12:05:44.448Z,21.60
2022-09-14T12:08:42.385Z,21.60
2022-09-14T12:11:28.689Z,21.60
2022-09-14T12:14:26.442Z,21.50
2022-09-14T12:17:22.604Z,21.40
2022-09-14T12:19:57.480Z,21.40
2022-09-14T12:22:33.316Z,21.20
2022-09-14T12:25:16.200Z,21.10
2022-09-14T12:27:44.993Z,21.10
2022-09-14T12:30:40.525Z,21.00
2022-09-14T12:33:43.803Z,20.90
2022-09-14T12:36:12.761Z,20.80
2022-09-14T12:38:43.928Z,20.80
2022-09-14T12:41:48.058Z,20.80
2022-09-14T12:44:36.837Z,20.70
2022-09-14T12:47:59.042Z,20.50
2022-09-14T12:50:31.636Z,20.50
2022-09-14T12:53:19.818Z,20.50
2022-09-14T12:55:57.614Z,20.50
2022-09-14T12:58:55.999Z,20.50
2022-09-14T13:01:37.175Z,20.60
2022-09-14T13:04:06.003Z,20.60
2022-09-14T13:06:41.550Z,20.50
2022-09-14T13:09:17.351Z,20.50
2022-09-14T13:11:49.842Z,20.60
2022-09-14T13:14:19.691Z,20.60
2022-09-14T13:16:51.412Z,20.60
2022-09-14T13:19:26.915Z,20.60
2022-09-14T13:21:56.592Z,20.60
2022-09-14T13:24:30.976Z,20.60
2022-09-14T13:27:02.259Z,20.60
2022-09-14T13:29:31.067Z,20.60
2022-09-14T13:32:03.689Z,20.60
2022-09-14T13:34:35.594Z,20.60
2022-09-14T13:37:05.180Z,20.60
2022-09-14T13:39:35.810Z,20.60
2022-09-14T13:42:06.404Z,20.60
2022-09-14T13:44:36.220Z,20.50
2022-09-14T13:47:06.686Z,20.50
2022-09-14T13:49:36.492Z,20.50
2022-09-14T13:52:43.547Z,20.40
2022-09-14T13:55:22.629Z,20.40
2022-09-14T13:58:20.927Z,20.40
2022-09-14T14:00:58.067Z,20.40
2022-09-14T14:03:30.939Z,20.40
2022-09-14T14:05:59.501Z,20.20
2022-09-14T14:08:32.466Z,20.10
2022-09-14T14:11:01.956Z,20.00
2022-09-14T14:13:33.003Z,19.80
2022-09-14T14:16:18.551Z,19.90
2022-09-14T14:18:53.273Z,19.80
2022-09-14T14:21:30.627Z,19.60
2022-09-14T14:24:49.745Z,19.40
2022-09-14T14:27:32.085Z,19.40
2022-09-14T14:30:02.797Z,19.40
2022-09-14T14:32:31.699Z,19.20
2022-09-14T14:35:06.145Z,19.10
2022-09-14T14:37:33.995Z,19.20
2022-09-14T14:40:02.113Z,19.10
2022-09-14T14:42:30.361Z,19.10
2022-09-14T14:44:58.214Z,19.10
2022-09-14T14:47:27.899Z,19.20
2022-09-14T14:49:55.812Z,19.30
2022-09-14T14:52:23.628Z,19.30
2022-09-14T14:54:51.440Z,19.50
2022-09-14T14:57:19.267Z,19.50
2022-09-14T14:59:51.749Z,19.50
2022-09-14T15:02:19.588Z,19.60
2022-09-14T15:04:49.057Z,19.50
2022-09-14T15:07:17.639Z,19.60
2022-09-14T15:09:45.732Z,19.60
2022-09-14T15:12:13.860Z,19.70
2022-09-14T15:14:41.835Z,19.70
2022-09-14T15:17:09.706Z,19.70
2022-09-14T15:19:37.601Z,19.60
2022-09-14T15:22:06.947Z,19.60
2022-09-14T15:24:34.800Z,19.70
2022-09-14T15:27:03.427Z,19.60
2022-09-14T15:29:31.342Z,19.60
2022-09-14T15:31:59.301Z,19.70
2022-09-14T15:34:27.300Z,19.50
2022-09-14T15:36:57.408Z,19.50
2022-09-14T15:39:28.650Z,19.60
2022-09-14T15:41:57.519Z,19.70
2022-09-14T15:44:25.477Z,19.70
2022-09-14T15:46:56.302Z,19.60
2022-09-14T15:49:25.765Z,19.60
2022-09-14T15:51:55.307Z,19.70
2022-09-14T15:54:25.175Z,19.70
2022-09-14T15:56:56.685Z,19.80
2022-09-14T15:59:24.587Z,19.90
2022-09-14T16:01:52.788Z,19.90
2022-09-14T16:04:21.866Z,19.90
2022-09-14T16:06:50.138Z,19.90
2022-09-14T16:09:21.455Z,19.90
2022-09-14T16:11:50.088Z,19.90
2022-09-14T16:14:19.343Z,19.90
2022-09-14T16:16:47.360Z,20.00
2022-09-14T16:19:16.168Z,20.00
2022-09-14T16:21:44.440Z,20.00
2022-09-14T16:24:15.019Z,20.10
2022-09-14T16:26:43.679Z,20.10
2022-09-14T16:29:13.619Z,20.10
2022-09-14T16:31:44.553Z,20.10
2022-09-14T16:34:14.818Z,20.10
2022-09-14T16:36:43.830Z,20.10
2022-09-14T16:39:13.099Z,20.00
2022-09-14T16:41:42.178Z,20.00
2022-09-14T16:44:13.344Z,20.00
2022-09-14T16:46:43.407Z,19.90
2022-09-14T16:49:11.689Z,19.80
2022-09-14T16:51:39.986Z,19.70
2022-09-14T16:54:08.917Z,19.70
2022-09-14T16:56:38.397Z,19.60
2022-09-14T16:59:07.399Z,19.50
2022-09-14T17:01:37.653Z,19.40
2022-09-14T17:04:09.454Z,19.20
2022-09-14T17:06:39.368Z,19.10
2022-09-14T17:09:08.919Z,18.90
2022-09-14T17:11:38.448Z,18.80
2022-09-14T17:14:07.234Z,18.80
2022-09-14T17:16:35.331Z,18.60
2022-09-14T17:19:06.330Z,18.40
2022-09-14T17:21:36.284Z,18.30
2022-09-14T17:24:05.543Z,18.20
2022-09-14T17:26:34.496Z,18.10
2022-09-14T17:29:03.250Z,18.10
2022-09-14T17:31:33.557Z,18.00
2022-09-14T17:34:03.031Z,17.90
2022-09-14T17:36:32.545Z,17.90
2022-09-14T17:39:02.870Z,17.70
2022-09-14T17:41:33.133Z,17.60
2022-09-14T17:44:02.839Z,17.60
2022-09-14T17:46:31.602Z,17.50
2022-09-14T17:49:01.117Z,17.50
2022-09-14T17:51:30.344Z,17.40
2022-09-14T17:54:01.839Z,17.50
2022-09-14T17:56:30.937Z,17.40
2022-09-14T17:59:04.598Z,17.40
2022-09-14T18:01:33.340Z,17.40
2022-09-14T18:04:03.122Z,17.40
2022-09-14T18:06:32.796Z,17.40
2022-09-14T18:09:04.651Z,17.40
2022-09-14T18:11:33.117Z,17.30
2022-09-14T18:14:01.457Z,17.30
2022-09-14T18:16:29.475Z,17.30
2022-09-14T18:18:58.097Z,17.30
2022-09-14T18:21:26.419Z,17.30
2022-09-14T18:23:55.867Z,17.30
2022-09-14T18:26:25.953Z,17.30
2022-09-14T18:28:56.081Z,17.30
2022-09-14T18:31:24.477Z,17.40
2022-09-14T18:33:54.009Z,17.30
2022-09-14T18:36:23.181Z,17.30
2022-09-14T18:38:52.926Z,17.30
2022-09-14T18:41:21.988Z,17.40
2022-09-14T18:43:52.966Z,17.40
2022-09-14T18:46:25.777Z,17.40
2022-09-14T18:48:57.278Z,17.50
2022-09-14T18:51:25.713Z,17.50
2022-09-14T18:53:58.007Z,17.60
2022-09-14T18:56:26.656Z,17.50
2022-09-14T18:58:56.093Z,17.50
2022-09-14T19:01:24.134Z,17.50
2022-09-14T19:03:53.745Z,17.60
2022-09-14T19:06:21.879Z,17.50
2022-09-14T19:08:50.932Z,17.50
2022-09-14T19:11:21.083Z,17.60
2022-09-14T19:13:50.811Z,17.60
2022-09-14T19:16:20.428Z,17.50
2022-09-14T19:18:49.899Z,17.40
2022-09-14T19:21:23.710Z,17.50
2022-09-14T19:24:00.141Z,17.50
2022-09-14T19:26:29.742Z,17.50
2022-09-14T19:28:57.635Z,17.50
2022-09-14T19:31:29.646Z,17.40
2022-09-14T19:33:57.857Z,17.50
2022-09-14T19:36:27.261Z,17.50
2022-09-14T19:38:57.271Z,17.50
2022-09-14T19:41:25.409Z,17.50
2022-09-14T19:43:53.391Z,17.40
2022-09-14T19:46:23.289Z,17.40
2022-09-14T19:48:52.968Z,17.40
2022-09-14T19:51:22.746Z,17.40
2022-09-14T19:53:52.827Z,17.40
2022-09-14T19:56:22.765Z,17.30
2022-09-14T19:58:53.591Z,17.40
2022-09-14T20:01:23.630Z,17.40
2022-09-14T20:03:53.107Z,17.30
2022-09-14T20:06:25.478Z,17.30
2022-09-14T20:08:56.540Z,17.30
2022-09-14T20:11:26.967Z,17.30
2022-09-14T20:13:55.699Z,17.30
2022-09-14T20:16:26.260Z,17.30
2022-09-14T20:18:56.745Z,17.30
2022-09-14T20:21:27.037Z,17.30
2022-09-14T20:24:15.137Z,17.30
2022-09-14T20:26:44.489Z,17.30
2022-09-14T20:29:12.549Z,17.30
2022-09-14T20:31:40.812Z,17.30
2022-09-14T20:34:10.088Z,17.40
2022-09-14T20:36:38.714Z,17.40
2022-09-14T20:39:06.983Z,17.40
2022-09-14T20:41:36.311Z,17.30
2022-09-14T20:44:05.004Z,17.30
2022-09-14T20:46:35.897Z,17.30
2022-09-14T20:49:05.527Z,17.30
2022-09-14T20:51:35.939Z,17.30
2022-09-14T20:54:04.912Z,17.40
2022-09-14T20:56:34.856Z,17.40
2022-09-14T20:59:05.355Z,17.40
2022-09-14T21:01:36.443Z,17.40
2022-09-14T21:04:06.591Z,17.40
2022-09-14T21:06:37.474Z,17.40
2022-09-14T21:09:05.528Z,17.40
2022-09-14T21:11:33.853Z,17.40
2022-09-14T21:14:01.914Z,17.50
2022-09-14T21:16:31.659Z,17.40
2022-09-14T21:19:00.849Z,17.30
2022-09-14T21:21:29.395Z,17.30
2022-09-14T21:24:00.256Z,17.40
2022-09-14T21:26:29.990Z,17.30
2022-09-14T21:28:59.423Z,17.30
